Time;durP1;ratioP1;P1;durP2;ratioP2;P2;SDS_P1;SDS_P2;PMS_P1;PMS_P2;Temp;Humidity;BMP_temperature;BMP_pressure;BME280_temperature;BME280_humidity;BME280_pressure;Samples;Min_cycle;Max_cycle;Signal;HPM_P1;HPM_P2
2021/07/23 00:00:49;;;;;;;10.57;8.10;;;;;;;;;;5033210;28;20238;-82
2021/07/23 00:03:15;;;;;;;11.27;8.00;;;;;;;;;;5032429;28;20021;-83
2021/07/23 00:05:41;;;;;;;9.60;7.57;;;;;;;;;;5032239;28;20037;-83
2021/07/23 00:08:07;;;;;;;12.52;8.20;;;;;;;;;;5032770;28;20021;-74
2021/07/23 00:10:35;;;;;;;11.85;7.97;;;;;;;;;;5033025;28;20029;-75
2021/07/23 00:13:01;;;;;;;10.50;7.80;;;;;;;;;;5032772;28;20442;-75
2021/07/23 00:15:27;;;;;;;12.55;8.32;;;;;;;;;;5032242;28;20032;-76
2021/07/23 00:17:53;;;;;;;9.68;7.60;;;;;;;;;;5031660;28;20038;-75
2021/07/23 00:20:19;;;;;;;13.90;7.95;;;;;;;;;;5032552;28;20029;-83
2021/07/23 00:22:45;;;;;;;11.30;7.80;;;;;;;;;;5032369;28;20436;-78
2021/07/23 00:25:12;;;;;;;11.60;8.10;;;;;;;;;;5014818;28;20438;-78
2021/07/23 00:27:38;;;;;;;11.38;8.13;;;;;;;;;;5031771;28;20493;-83
2021/07/23 00:30:05;;;;;;;11.00;7.85;;;;;;;;;;5033084;28;20033;-78
2021/07/23 00:32:31;;;;;;;10.32;7.72;;;;;;;;;;5031984;28;20028;-75
2021/07/23 00:34:57;;;;;;;9.90;8.15;;;;;;;;;;5032616;28;20029;-77
2021/07/23 00:37:25;;;;;;;13.57;7.80;;;;;;;;;;5031320;28;20083;-74
2021/07/23 00:39:53;;;;;;;9.55;7.80;;;;;;;;;;5032314;28;20052;-74
2021/07/23 00:42:19;;;;;;;9.35;8.00;;;;;;;;;;5032246;28;20147;-74
2021/07/23 00:44:46;;;;;;;10.77;8.25;;;;;;;;;;5018774;28;20049;-77
2021/07/23 00:47:12;;;;;;;10.70;8.18;;;;;;;;;;5032126;28;20076;-76
2021/07/23 00:49:38;;;;;;;8.65;7.70;;;;;;;;;;5032088;28;20226;-75
2021/07/23 00:52:04;;;;;;;11.90;7.97;;;;;;;;;;5032720;28;20036;-74
2021/07/23 00:54:31;;;;;;;11.43;7.90;;;;;;;;;;5031411;28;20469;-76
2021/07/23 00:56:57;;;;;;;10.15;8.40;;;;;;;;;;5032498;28;20032;-76
2021/07/23 00:59:23;;;;;;;11.95;7.53;;;;;;;;;;5031954;28;20071;-75
2021/07/23 01:01:49;;;;;;;10.35;8.07;;;;;;;;;;5031918;28;20112;-75
2021/07/23 01:04:16;;;;;;;10.00;7.80;;;;;;;;;;5031095;28;20474;-85
2021/07/23 01:06:42;;;;;;;9.18;7.93;;;;;;;;;;5031660;28;20056;-83
2021/07/23 01:09:08;;;;;;;10.77;7.82;;;;;;;;;;5031789;28;20491;-84
2021/07/23 01:11:35;;;;;;;12.23;8.23;;;;;;;;;;5031291;28;20433;-74
2021/07/23 01:14:02;;;;;;;11.05;7.82;;;;;;;;;;5031379;28;20235;-80
2021/07/23 01:16:28;;;;;;;11.23;7.80;;;;;;;;;;5031494;28;20017;-74
2021/07/23 01:18:54;;;;;;;8.70;7.47;;;;;;;;;;5032261;28;20091;-81
2021/07/23 01:21:20;;;;;;;10.05;7.93;;;;;;;;;;5031422;28;20036;-75
2021/07/23 01:23:46;;;;;;;10.13;7.45;;;;;;;;;;5031366;28;20033;-83
2021/07/23 01:26:13;;;;;;;9.27;8.07;;;;;;;;;;5031834;28;20033;-79
2021/07/23 01:28:39;;;;;;;10.23;7.90;;;;;;;;;;5031469;28;20021;-82
2021/07/23 01:31:05;;;;;;;11.63;7.65;;;;;;;;;;5031328;28;20136;-75
2021/07/23 01:33:31;;;;;;;10.90;7.68;;;;;;;;;;5031519;28;20057;-75
2021/07/23 01:35:58;;;;;;;12.55;8.25;;;;;;;;;;5030466;28;20037;-83
2021/07/23 01:38:28;;;;;;;10.60;8.05;;;;;;;;;;5031709;28;20045;-86
2021/07/23 01:40:55;;;;;;;12.32;9.10;;;;;;;;;;5031166;28;20042;-75
2021/07/23 01:43:21;;;;;;;13.85;9.05;;;;;;;;;;5027754;28;20029;-75
2021/07/23 01:45:47;;;;;;;15.95;8.82;;;;;;;;;;5031956;28;20072;-75
2021/07/23 01:48:13;;;;;;;12.38;9.40;;;;;;;;;;5033876;28;20522;-74
2021/07/23 01:50:39;;;;;;;13.30;8.90;;;;;;;;;;5038593;28;20472;-80
2021/07/23 01:53:05;;;;;;;12.82;8.65;;;;;;;;;;5034827;28;20445;-77
2021/07/23 01:55:31;;;;;;;13.20;9.35;;;;;;;;;;5033055;28;20018;-74
2021/07/23 01:57:58;;;;;;;17.08;9.05;;;;;;;;;;5032193;28;20025;-81
2021/07/23 02:00:24;;;;;;;13.35;9.27;;;;;;;;;;5031815;28;20498;-77
2021/07/23 02:02:50;;;;;;;13.52;8.88;;;;;;;;;;5032049;28;20441;-75
2021/07/23 02:05:16;;;;;;;13.73;9.27;;;;;;;;;;5031853;28;20029;-83
2021/07/23 02:07:42;;;;;;;11.35;9.00;;;;;;;;;;5032954;28;20179;-79
2021/07/23 02:10:08;;;;;;;12.27;8.98;;;;;;;;;;5034754;28;20386;-74
2021/07/23 02:12:35;;;;;;;11.57;8.77;;;;;;;;;;5036222;28;20100;-77
2021/07/23 02:15:01;;;;;;;12.52;9.23;;;;;;;;;;5035234;28;20391;-74
2021/07/23 02:17:27;;;;;;;14.45;9.32;;;;;;;;;;5039319;28;20028;-75
2021/07/23 02:19:53;;;;;;;14.75;9.02;;;;;;;;;;5038221;28;20387;-76
2021/07/23 02:22:19;;;;;;;13.07;8.70;;;;;;;;;;5037718;28;20025;-74
2021/07/23 02:24:45;;;;;;;11.15;9.05;;;;;;;;;;5036078;28;20107;-75
2021/07/23 02:27:12;;;;;;;12.65;8.80;;;;;;;;;;5038427;28;20477;-74
2021/07/23 02:29:38;;;;;;;11.10;8.75;;;;;;;;;;5041302;28;20025;-82
2021/07/23 02:32:04;;;;;;;10.95;8.85;;;;;;;;;;5044879;28;20025;-74
2021/07/23 02:34:32;;;;;;;12.00;8.57;;;;;;;;;;5043185;28;20097;-80
2021/07/23 02:36:58;;;;;;;12.77;8.80;;;;;;;;;;5042010;28;20498;-78
2021/07/23 02:39:25;;;;;;;10.88;8.98;;;;;;;;;;5038034;28;20026;-76
2021/07/23 02:41:51;;;;;;;12.27;9.05;;;;;;;;;;5037443;28;20491;-74
2021/07/23 02:44:17;;;;;;;11.43;8.73;;;;;;;;;;5036555;28;20034;-73
2021/07/23 02:46:43;;;;;;;11.65;8.85;;;;;;;;;;5036499;28;20359;-77
2021/07/23 02:49:13;;;;;;;11.60;8.98;;;;;;;;;;5035154;28;20029;-82
2021/07/23 02:51:39;;;;;;;13.23;9.10;;;;;;;;;;5036069;28;20163;-74
2021/07/23 02:54:05;;;;;;;11.93;9.27;;;;;;;;;;5034478;28;20033;-74
2021/07/23 02:56:31;;;;;;;12.60;9.45;;;;;;;;;;5034589;28;20045;-76
2021/07/23 02:58:57;;;;;;;14.00;8.45;;;;;;;;;;5034782;28;20034;-73
2021/07/23 03:01:23;;;;;;;14.00;8.98;;;;;;;;;;5034601;28;20183;-77
2021/07/23 03:03:50;;;;;;;12.13;9.00;;;;;;;;;;5034145;28;20035;-74
2021/07/23 03:06:16;;;;;;;11.55;8.75;;;;;;;;;;5034696;28;20105;-80
2021/07/23 03:08:44;;;;;;;11.20;9.07;;;;;;;;;;5033391;28;20136;-79
2021/07/23 03:11:10;;;;;;;10.80;8.52;;;;;;;;;;5033642;28;20113;-79
2021/07/23 03:13:36;;;;;;;17.63;9.18;;;;;;;;;;5034605;28;20036;-83
2021/07/23 03:16:02;;;;;;;11.48;8.63;;;;;;;;;;5033763;28;20018;-80
2021/07/23 03:18:29;;;;;;;12.57;8.60;;;;;;;;;;5033588;28;20051;-74
2021/07/23 03:20:55;;;;;;;13.70;9.73;;;;;;;;;;5032764;28;20040;-79
2021/07/23 03:23:21;;;;;;;11.15;9.02;;;;;;;;;;5034109;28;20037;-80
2021/07/23 03:25:47;;;;;;;15.45;9.75;;;;;;;;;;5033621;28;20034;-78
2021/07/23 03:28:13;;;;;;;11.32;9.07;;;;;;;;;;5033718;28;20025;-79
2021/07/23 03:30:40;;;;;;;12.27;9.48;;;;;;;;;;5033649;28;20026;-74
2021/07/23 03:33:06;;;;;;;15.35;9.65;;;;;;;;;;5033044;28;20038;-75
2021/07/23 03:35:32;;;;;;;11.88;8.52;;;;;;;;;;5033549;28;20033;-74
2021/07/23 03:37:58;;;;;;;13.35;9.30;;;;;;;;;;5033829;28;20625;-85
2021/07/23 03:40:24;;;;;;;12.35;8.90;;;;;;;;;;5033220;28;20037;-79
2021/07/23 03:42:50;;;;;;;14.15;8.88;;;;;;;;;;5032873;28;20025;-75
2021/07/23 03:45:16;;;;;;;15.32;9.60;;;;;;;;;;5033536;28;20028;-75
2021/07/23 03:47:42;;;;;;;17.80;9.23;;;;;;;;;;5032234;28;20035;-79
2021/07/23 03:50:08;;;;;;;11.38;8.98;;;;;;;;;;5033638;28;20026;-76
2021/07/23 03:52:34;;;;;;;11.23;9.15;;;;;;;;;;5033019;28;20113;-80
2021/07/23 03:55:02;;;;;;;13.38;9.43;;;;;;;;;;5032867;28;20045;-84
2021/07/23 03:57:28;;;;;;;11.95;9.75;;;;;;;;;;5032634;28;20044;-75
2021/07/23 03:59:54;;;;;;;14.73;9.30;;;;;;;;;;5029043;28;20057;-74
2021/07/23 04:02:21;;;;;;;11.32;9.30;;;;;;;;;;5023248;28;20021;-81
2021/07/23 04:04:47;;;;;;;10.32;9.00;;;;;;;;;;5032636;28;20112;-84
2021/07/23 04:07:15;;;;;;;13.18;8.73;;;;;;;;;;5032547;28;20029;-78
2021/07/23 04:09:41;;;;;;;12.82;8.90;;;;;;;;;;5033138;28;20646;-77
2021/07/23 04:12:07;;;;;;;15.02;9.90;;;;;;;;;;5032492;28;20059;-74
2021/07/23 04:14:33;;;;;;;13.45;9.60;;;;;;;;;;5030759;28;20570;-77
2021/07/23 04:16:59;;;;;;;11.90;8.98;;;;;;;;;;5032642;28;20101;-80
2021/07/23 04:19:28;;;;;;;11.43;9.15;;;;;;;;;;5031894;28;20029;-74
2021/07/23 04:21:54;;;;;;;16.17;9.70;;;;;;;;;;5031749;28;20518;-84
2021/07/23 04:24:20;;;;;;;14.48;9.30;;;;;;;;;;5033765;28;20112;-79
2021/07/23 04:26:46;;;;;;;16.90;8.68;;;;;;;;;;5031383;28;20037;-72
2021/07/23 04:29:12;;;;;;;15.10;9.02;;;;;;;;;;5032406;28;20112;-78
2021/07/23 04:31:38;;;;;;;14.98;9.32;;;;;;;;;;5032520;28;20044;-80
2021/07/23 04:34:04;;;;;;;15.55;9.07;;;;;;;;;;5009278;28;20116;-74
2021/07/23 04:36:30;;;;;;;16.65;9.85;;;;;;;;;;5029942;28;20934;-71
2021/07/23 04:38:56;;;;;;;12.07;9.23;;;;;;;;;;5029772;28;20368;-82
2021/07/23 04:41:30;;;;;;;13.20;9.20;;;;;;;;;;5031224;28;20017;-81
2021/07/23 04:43:57;;;;;;;11.32;8.80;;;;;;;;;;5031693;28;20135;-85
2021/07/23 04:46:26;;;;;;;14.23;9.23;;;;;;;;;;5032075;28;20041;-73
2021/07/23 04:48:52;;;;;;;11.75;8.27;;;;;;;;;;5027291;28;20041;-72
2021/07/23 04:51:18;;;;;;;13.07;9.25;;;;;;;;;;5032537;28;20026;-74
2021/07/23 04:53:45;;;;;;;13.93;8.95;;;;;;;;;;5032496;28;20372;-73
2021/07/23 04:56:11;;;;;;;12.80;9.30;;;;;;;;;;5031415;28;20021;-77
2021/07/23 04:58:37;;;;;;;14.43;9.43;;;;;;;;;;5030212;28;20072;-86
2021/07/23 05:01:03;;;;;;;15.00;9.65;;;;;;;;;;5027752;28;20025;-72
2021/07/23 05:03:34;;;;;;;12.13;8.95;;;;;;;;;;5031638;28;20467;-80
2021/07/23 05:06:01;;;;;;;13.85;9.43;;;;;;;;;;5031810;28;20034;-75
2021/07/23 05:08:27;;;;;;;13.70;8.57;;;;;;;;;;5032005;28;20064;-73
2021/07/23 05:10:53;;;;;;;13.07;8.85;;;;;;;;;;5031146;28;20025;-84
2021/07/23 05:13:22;;;;;;;12.25;9.02;;;;;;;;;;5012344;28;20483;-81
2021/07/23 05:15:48;;;;;;;12.52;8.43;;;;;;;;;;5027729;28;20121;-75
2021/07/23 05:18:15;;;;;;;12.82;8.27;;;;;;;;;;5030723;28;20513;-83
2021/07/23 05:20:42;;;;;;;10.65;7.47;;;;;;;;;;5025838;28;20037;-86
2021/07/23 05:23:08;;;;;;;11.52;7.68;;;;;;;;;;5025601;28;20493;-74
2021/07/23 05:25:36;;;;;;;11.07;8.43;;;;;;;;;;5031076;28;20040;-84
2021/07/23 05:28:05;;;;;;;11.02;8.13;;;;;;;;;;5023598;28;20147;-81
2021/07/23 05:30:31;;;;;;;17.02;8.40;;;;;;;;;;5030116;28;20083;-79
2021/07/23 05:32:57;;;;;;;14.05;8.68;;;;;;;;;;5026401;28;20487;-77
2021/07/23 05:35:23;;;;;;;16.35;9.90;;;;;;;;;;5021792;28;20041;-78
2021/07/23 05:37:49;;;;;;;13.70;8.98;;;;;;;;;;5023280;28;20092;-83
2021/07/23 05:40:16;;;;;;;18.33;8.70;;;;;;;;;;5007604;28;20418;-85
2021/07/23 05:42:42;;;;;;;14.60;9.05;;;;;;;;;;5025907;28;20038;-70
2021/07/23 05:45:08;;;;;;;12.95;8.70;;;;;;;;;;5026120;28;20030;-70
2021/07/23 05:47:34;;;;;;;13.65;8.68;;;;;;;;;;5028975;28;20037;-83
2021/07/23 05:50:01;;;;;;;16.70;8.73;;;;;;;;;;5024607;28;20042;-84
2021/07/23 05:52:27;;;;;;;16.25;8.75;;;;;;;;;;5030784;28;20109;-84
2021/07/23 05:54:53;;;;;;;13.38;8.98;;;;;;;;;;5025713;28;20034;-74
2021/07/23 05:57:19;;;;;;;15.43;9.35;;;;;;;;;;5020908;28;20026;-79
2021/07/23 05:59:46;;;;;;;12.05;9.18;;;;;;;;;;5030346;28;20025;-82
2021/07/23 06:02:12;;;;;;;16.70;9.70;;;;;;;;;;5021075;28;20022;-79
2021/07/23 06:04:41;;;;;;;13.10;9.30;;;;;;;;;;5024122;28;20024;-81
2021/07/23 06:07:08;;;;;;;11.95;9.10;;;;;;;;;;5025727;28;20088;-87
2021/07/23 06:09:34;;;;;;;16.42;10.27;;;;;;;;;;5032665;28;20026;-79
2021/07/23 06:12:00;;;;;;;16.05;8.73;;;;;;;;;;5009255;28;20021;-79
2021/07/23 06:14:26;;;;;;;14.98;9.32;;;;;;;;;;5027085;28;20104;-78
2021/07/23 06:16:55;;;;;;;13.00;9.52;;;;;;;;;;5030152;28;20097;-77
2021/07/23 06:19:21;;;;;;;12.32;8.63;;;;;;;;;;5035150;28;20040;-79
2021/07/23 06:21:47;;;;;;;14.35;8.88;;;;;;;;;;5032549;28;20048;-79
2021/07/23 06:24:13;;;;;;;12.38;8.60;;;;;;;;;;5027968;28;20096;-78
2021/07/23 06:26:40;;;;;;;13.98;8.52;;;;;;;;;;5026799;28;20029;-77
2021/07/23 06:29:06;;;;;;;20.30;9.20;;;;;;;;;;5031048;28;20025;-85
2021/07/23 06:31:34;;;;;;;15.70;8.95;;;;;;;;;;5029258;28;20096;-85
2021/07/23 06:34:02;;;;;;;11.57;7.80;;;;;;;;;;5033626;28;20037;-83
2021/07/23 06:36:28;;;;;;;14.70;8.60;;;;;;;;;;5010630;28;20520;-90
2021/07/23 06:38:55;;;;;;;12.88;8.60;;;;;;;;;;5031927;28;20468;-87
2021/07/23 06:41:21;;;;;;;16.98;8.27;;;;;;;;;;5037605;28;20091;-89
2021/07/23 06:43:47;;;;;;;19.73;9.05;;;;;;;;;;5033575;28;20072;-73
2021/07/23 06:46:13;;;;;;;13.13;8.73;;;;;;;;;;5033042;28;20021;-83
2021/07/23 06:48:39;;;;;;;18.73;8.30;;;;;;;;;;5033310;28;20658;-85
2021/07/23 06:51:05;;;;;;;14.40;8.23;;;;;;;;;;5031231;28;20057;-73
2021/07/23 06:53:31;;;;;;;17.92;8.98;;;;;;;;;;5030286;28;20121;-81
2021/07/23 06:55:57;;;;;;;16.35;8.52;;;;;;;;;;5022065;28;20550;-80
2021/07/23 06:58:23;;;;;;;15.57;8.73;;;;;;;;;;5030446;28;20028;-79
2021/07/23 07:00:49;;;;;;;21.77;8.73;;;;;;;;;;5030949;28;20025;-84
2021/07/23 07:03:15;;;;;;;16.88;8.30;;;;;;;;;;5028621;28;20052;-80
2021/07/23 07:05:42;;;;;;;15.75;8.93;;;;;;;;;;5031815;28;20514;-84
2021/07/23 07:08:08;;;;;;;16.88;8.63;;;;;;;;;;5025429;28;20033;-78
2021/07/23 07:10:34;;;;;;;20.30;9.02;;;;;;;;;;5023939;28;20024;-72
2021/07/23 07:13:01;;;;;;;25.13;8.52;;;;;;;;;;5032256;28;20026;-76
2021/07/23 07:15:27;;;;;;;23.95;8.57;;;;;;;;;;5028232;28;20554;-78
2021/07/23 07:17:57;;;;;;;71.68;17.55;;;;;;;;;;5029319;28;20052;-83
2021/07/23 07:20:23;;;;;;;25.83;10.32;;;;;;;;;;5030468;28;20037;-72
2021/07/23 07:22:49;;;;;;;50.08;13.82;;;;;;;;;;5028699;28;20032;-73
2021/07/23 07:25:16;;;;;;;27.88;10.25;;;;;;;;;;5028479;28;20028;-72
2021/07/23 07:27:42;;;;;;;32.70;10.00;;;;;;;;;;5027609;28;20052;-75
2021/07/23 07:30:08;;;;;;;23.40;8.27;;;;;;;;;;5028916;28;20020;-72
2021/07/23 07:32:34;;;;;;;13.02;7.38;;;;;;;;;;5029340;28;20037;-79
2021/07/23 07:35:00;;;;;;;12.88;7.63;;;;;;;;;;5031059;28;20040;-81
2021/07/23 07:37:26;;;;;;;13.95;7.45;;;;;;;;;;5029467;28;20123;-81
2021/07/23 07:39:52;;;;;;;14.02;7.65;;;;;;;;;;5027005;28;20050;-79
2021/07/23 07:42:18;;;;;;;16.10;7.55;;;;;;;;;;5020700;28;20034;-79
2021/07/23 07:44:46;;;;;;;14.25;7.55;;;;;;;;;;5021007;28;20564;-78
2021/07/23 07:47:12;;;;;;;10.55;7.43;;;;;;;;;;5008580;28;20030;-73
2021/07/23 07:49:38;;;;;;;19.00;7.93;;;;;;;;;;5024038;28;20022;-78
2021/07/23 07:52:04;;;;;;;22.33;7.72;;;;;;;;;;5026618;28;20036;-82
2021/07/23 07:54:31;;;;;;;17.58;7.55;;;;;;;;;;5002458;28;20063;-78
2021/07/23 07:56:58;;;;;;;15.50;7.80;;;;;;;;;;5025706;28;20025;-78
2021/07/23 07:59:24;;;;;;;9.07;7.05;;;;;;;;;;5030266;28;20478;-79
2021/07/23 08:01:50;;;;;;;13.23;7.38;;;;;;;;;;5022114;28;20036;-84
2021/07/23 08:04:16;;;;;;;19.55;7.93;;;;;;;;;;5022241;28;20029;-84
2021/07/23 08:06:44;;;;;;;11.73;7.82;;;;;;;;;;5027814;28;20065;-83
2021/07/23 08:09:13;;;;;;;17.98;8.07;;;;;;;;;;5027235;28;20029;-78
2021/07/23 08:11:39;;;;;;;14.30;7.45;;;;;;;;;;5005900;28;20017;-72
2021/07/23 08:14:05;;;;;;;14.82;7.25;;;;;;;;;;5024811;28;20064;-79
2021/07/23 08:16:31;;;;;;;11.98;7.65;;;;;;;;;;5020176;28;20469;-82
2021/07/23 08:19:00;;;;;;;11.70;7.20;;;;;;;;;;5027422;28;20502;-72
2021/07/23 08:21:26;;;;;;;9.57;6.97;;;;;;;;;;5031401;28;20451;-84
2021/07/23 08:23:52;;;;;;;13.27;6.95;;;;;;;;;;5030610;28;20450;-83
2021/07/23 08:26:18;;;;;;;14.60;7.20;;;;;;;;;;5009268;28;20041;-81
2021/07/23 08:28:45;;;;;;;15.50;7.55;;;;;;;;;;5022341;28;20026;-80
2021/07/23 08:31:11;;;;;;;10.20;7.47;;;;;;;;;;5031084;28;20098;-75
2021/07/23 08:33:37;;;;;;;10.52;7.15;;;;;;;;;;5008195;28;20038;-85
2021/07/23 08:36:03;;;;;;;16.40;7.15;;;;;;;;;;5011153;28;20501;-87
2021/07/23 08:38:29;;;;;;;13.57;7.75;;;;;;;;;;5024523;28;20072;-79
2021/07/23 08:40:55;;;;;;;12.15;7.40;;;;;;;;;;5027652;28;20068;-79
2021/07/23 08:43:21;;;;;;;22.38;8.20;;;;;;;;;;5026506;28;20021;-81
2021/07/23 08:45:47;;;;;;;19.33;8.10;;;;;;;;;;5023680;28;20509;-82
2021/07/23 08:48:13;;;;;;;10.25;6.90;;;;;;;;;;5019341;28;20030;-83
2021/07/23 08:50:39;;;;;;;12.27;7.70;;;;;;;;;;5023498;28;20057;-82
2021/07/23 08:53:09;;;;;;;10.70;6.95;;;;;;;;;;5024438;28;20468;-82
2021/07/23 08:55:36;;;;;;;10.75;7.38;;;;;;;;;;5024921;28;20121;-87
2021/07/23 08:58:02;;;;;;;11.77;7.57;;;;;;;;;;5030137;28;20087;-85
2021/07/23 09:00:28;;;;;;;10.80;7.22;;;;;;;;;;5026834;28;20525;-85
2021/07/23 09:03:01;;;;;;;11.30;6.70;;;;;;;;;;5023700;28;20025;-80
2021/07/23 09:05:27;;;;;;;;;;;;;;;;;;5021995;28;20365;-80
2021/07/23 09:07:54;;;;;;;10.35;7.30;;;;;;;;;;5026011;28;19932;-79
2021/07/23 09:10:27;;;;;;;9.88;6.88;;;;;;;;;;5025319;28;20026;-79
2021/07/23 09:12:53;;;;;;;;;;;;;;;;;;5024796;28;20033;-77
2021/07/23 09:15:20;;;;;;;10.18;7.15;;;;;;;;;;5023667;28;20043;-87
2021/07/23 09:17:46;;;;;;;11.43;6.97;;;;;;;;;;5030357;28;20124;-90
2021/07/23 09:20:15;;;;;;;12.18;7.40;;;;;;;;;;5017903;28;20041;-91
2021/07/23 09:22:48;;;;;;;13.38;7.45;;;;;;;;;;5023575;28;20047;-83
2021/07/23 09:25:15;;;;;;;10.63;7.70;;;;;;;;;;5022372;28;20421;-77
2021/07/23 09:27:41;;;;;;;9.27;7.00;;;;;;;;;;5030064;28;20383;-84
2021/07/23 09:30:09;;;;;;;10.82;7.05;;;;;;;;;;5029063;28;20040;-81
2021/07/23 09:32:35;;;;;;;14.70;7.70;;;;;;;;;;5023412;28;21036;-83
2021/07/23 09:35:09;;;;;;;11.43;6.97;;;;;;;;;;5020029;28;20136;-83
2021/07/23 09:37:58;;;;;;;11.25;7.18;;;;;;;;;;5029018;28;20469;-73
2021/07/23 09:40:25;;;;;;;12.90;7.38;;;;;;;;;;4914348;29;20454;-84
2021/07/23 09:42:58;;;;;;;12.75;7.22;;;;;;;;;;4925899;29;20103;-76
2021/07/23 09:45:26;;;;;;;10.55;7.40;;;;;;;;;;4926262;29;20059;-82
2021/07/23 09:47:52;;;;;;;9.38;7.05;;;;;;;;;;4913266;29;20027;-85
2021/07/23 09:50:18;;;;;;;10.23;7.30;;;;;;;;;;4925637;29;20051;-74
2021/07/23 09:52:45;;;;;;;13.40;7.45;;;;;;;;;;4912803;29;20435;-79
2021/07/23 09:55:11;;;;;;;13.15;7.68;;;;;;;;;;4927467;29;20537;-83
2021/07/23 09:57:39;;;;;;;8.18;7.10;;;;;;;;;;4927913;29;20043;-82
2021/07/23 10:00:10;;;;;;;9.25;6.90;;;;;;;;;;4929497;29;20038;-82
2021/07/23 10:02:43;;;;;;;10.38;7.35;;;;;;;;;;4927033;29;20027;-79
2021/07/23 10:05:13;;;;;;;10.65;7.70;;;;;;;;;;4913855;29;20039;-77
2021/07/23 10:07:47;;;;;;;13.23;7.88;;;;;;;;;;4927876;29;20202;-76
2021/07/23 10:10:13;;;;;;;8.98;7.50;;;;;;;;;;4912010;29;20047;-85
2021/07/23 10:15:52;;;;;;;10.85;8.10;;;;;;;;;;4881478;29;20068;-77
2021/07/23 10:18:19;;;;;;;12.15;7.85;;;;;;;;;;4924080;29;20050;-73
2021/07/23 10:20:46;;;;;;;9.02;7.40;;;;;;;;;;4924252;29;20035;-77
2021/07/23 10:23:16;;;;;;;8.63;7.60;;;;;;;;;;4921875;29;20374;-77
2021/07/23 10:25:42;;;;;;;10.43;7.30;;;;;;;;;;4929100;29;20073;-84
2021/07/23 10:28:10;;;;;;;8.85;6.78;;;;;;;;;;4932684;29;20032;-88
2021/07/23 10:30:37;;;;;;;10.95;6.95;;;;;;;;;;4935033;29;20020;-71
2021/07/23 10:33:04;;;;;;;12.65;7.68;;;;;;;;;;4935163;29;20043;-75
2021/07/23 10:35:31;;;;;;;9.10;7.45;;;;;;;;;;4933267;29;20130;-82
2021/07/23 10:37:58;;;;;;;13.95;7.30;;;;;;;;;;4934672;29;20052;-78
2021/07/23 10:40:42;;;;;;;10.40;7.38;;;;;;;;;;4934674;29;20084;-84
2021/07/23 10:43:26;;;;;;;10.30;7.60;;;;;;;;;;4936463;29;20042;-81
2021/07/23 10:45:52;;;;;;;11.93;7.93;;;;;;;;;;4935458;29;20054;-81
2021/07/23 10:48:37;;;;;;;9.18;7.50;;;;;;;;;;4933191;29;20038;-83
2021/07/23 10:51:03;;;;;;;13.27;7.88;;;;;;;;;;4948627;28;20027;-84
2021/07/23 10:53:31;;;;;;;10.05;7.57;;;;;;;;;;5029629;28;20026;-82
2021/07/23 10:55:57;;;;;;;8.52;7.35;;;;;;;;;;5032132;28;20063;-80
2021/07/23 10:58:23;;;;;;;9.48;7.70;;;;;;;;;;5023767;28;20025;-83
2021/07/23 11:00:55;;;;;;;10.68;7.90;;;;;;;;;;5029090;28;20044;-77
2021/07/23 11:03:45;;;;;;;9.82;8.07;;;;;;;;;;5015889;28;20026;-85
2021/07/23 11:06:18;;;;;;;10.00;7.72;;;;;;;;;;5015054;28;20045;-85
2021/07/23 11:08:54;;;;;;;9.90;7.68;;;;;;;;;;5011255;28;20052;-86
2021/07/23 11:11:21;;;;;;;10.90;7.93;;;;;;;;;;5029704;28;20057;-74
2021/07/23 11:13:47;;;;;;;10.18;7.97;;;;;;;;;;5024696;28;20041;-81
2021/07/23 11:16:14;;;;;;;12.10;8.27;;;;;;;;;;5008239;28;20082;-78
2021/07/23 11:18:52;;;;;;;15.00;8.80;;;;;;;;;;5029826;28;20021;-90
2021/07/23 11:21:18;;;;;;;15.95;7.82;;;;;;;;;;5007840;28;20040;-77
2021/07/23 11:23:46;;;;;;;13.40;8.00;;;;;;;;;;5025621;28;20026;-79
2021/07/23 11:26:14;;;;;;;13.00;8.38;;;;;;;;;;5032392;28;20024;-76
2021/07/23 11:28:51;;;;;;;11.82;8.43;;;;;;;;;;5019135;28;20037;-84
2021/07/23 11:31:39;;;;;;;9.32;8.13;;;;;;;;;;5028339;28;20035;-75
2021/07/23 11:34:25;;;;;;;11.20;8.23;;;;;;;;;;5025183;28;20025;-73
2021/07/23 11:36:52;;;;;;;13.65;7.72;;;;;;;;;;5027881;28;20041;-70
2021/07/23 11:39:23;;;;;;;9.68;7.93;;;;;;;;;;5022144;28;20495;-75
2021/07/23 11:42:05;;;;;;;10.25;8.00;;;;;;;;;;5030586;28;20087;-80
2021/07/23 11:44:32;;;;;;;17.17;8.90;;;;;;;;;;5030538;28;20026;-76
2021/07/23 11:47:12;;;;;;;9.88;8.88;;;;;;;;;;5031500;28;20378;-80
2021/07/23 11:49:40;;;;;;;11.55;8.82;;;;;;;;;;5029344;28;20467;-82
2021/07/23 11:52:09;;;;;;;11.50;9.23;;;;;;;;;;5031061;28;20376;-74
2021/07/23 11:54:35;;;;;;;12.48;9.85;;;;;;;;;;5028579;28;20037;-71
2021/07/23 11:57:02;;;;;;;11.15;9.48;;;;;;;;;;5023976;28;20463;-81
2021/07/23 11:59:36;;;;;;;11.95;10.00;;;;;;;;;;5031049;28;20056;-72
2021/07/23 12:02:07;;;;;;;10.90;9.50;;;;;;;;;;5021984;28;20022;-85
2021/07/23 12:04:33;;;;;;;11.73;9.63;;;;;;;;;;5024670;28;20033;-81
2021/07/23 12:07:00;;;;;;;10.48;9.27;;;;;;;;;;5031006;28;20080;-70
2021/07/23 12:09:26;;;;;;;13.27;10.27;;;;;;;;;;5020017;28;20029;-79
2021/07/23 12:11:53;;;;;;;11.00;9.65;;;;;;;;;;5030001;28;20056;-83
2021/07/23 12:14:19;;;;;;;11.60;9.68;;;;;;;;;;5028385;28;20030;-89
2021/07/23 12:16:45;;;;;;;13.82;10.45;;;;;;;;;;5009229;28;20037;-84
2021/07/23 12:19:17;;;;;;;11.63;9.45;;;;;;;;;;5012253;28;20419;-82
2021/07/23 12:21:43;;;;;;;12.43;10.32;;;;;;;;;;5012427;28;20083;-84
2021/07/23 12:24:11;;;;;;;15.38;10.48;;;;;;;;;;5011853;28;20072;-79
2021/07/23 12:26:38;;;;;;;16.60;10.57;;;;;;;;;;5024933;28;20017;-74
2021/07/23 12:29:05;;;;;;;15.20;11.02;;;;;;;;;;5031293;28;20053;-82
2021/07/23 12:31:31;;;;;;;11.88;10.02;;;;;;;;;;5013372;28;20021;-78
2021/07/23 12:34:03;;;;;;;13.98;10.43;;;;;;;;;;5029027;28;20037;-78
2021/07/23 12:36:29;;;;;;;12.95;11.20;;;;;;;;;;5025802;28;20029;-82
2021/07/23 12:39:04;;;;;;;13.43;10.98;;;;;;;;;;5030360;28;20081;-72
2021/07/23 12:41:31;;;;;;;12.77;10.48;;;;;;;;;;5023275;28;20036;-69
2021/07/23 12:44:04;;;;;;;13.48;10.57;;;;;;;;;;5013827;28;20021;-73
2021/07/23 12:46:40;;;;;;;17.20;10.38;;;;;;;;;;5008502;28;20034;-70
2021/07/23 12:49:22;;;;;;;17.10;10.98;;;;;;;;;;4988545;28;20066;-77
2021/07/23 12:52:00;;;;;;;16.52;10.80;;;;;;;;;;4987945;28;20848;-70
2021/07/23 12:54:46;;;;;;;14.68;10.80;;;;;;;;;;4982429;28;20046;-72
2021/07/23 12:57:25;;;;;;;17.15;10.70;;;;;;;;;;4981694;28;20034;-80
2021/07/23 12:59:52;;;;;;;15.35;10.82;;;;;;;;;;4966920;28;20105;-69
2021/07/23 13:02:18;;;;;;;12.25;10.73;;;;;;;;;;4974668;28;20409;-71
2021/07/23 13:04:49;;;;;;;15.50;11.80;;;;;;;;;;4986115;28;20089;-73
2021/07/23 13:07:15;;;;;;;13.13;11.43;;;;;;;;;;4986617;28;20030;-70
2021/07/23 13:09:45;;;;;;;17.70;12.70;;;;;;;;;;4987678;28;20050;-75
2021/07/23 13:12:28;;;;;;;15.25;11.38;;;;;;;;;;4984167;28;20030;-80
2021/07/23 13:15:09;;;;;;;15.93;11.75;;;;;;;;;;5003017;28;20045;-76
2021/07/23 13:17:35;;;;;;;14.63;11.68;;;;;;;;;;5005255;28;20048;-77
2021/07/23 13:20:01;;;;;;;16.13;12.18;;;;;;;;;;5009524;28;20128;-79
2021/07/23 13:22:27;;;;;;;15.88;12.38;;;;;;;;;;5008925;28;20129;-72
2021/07/23 13:25:05;;;;;;;14.68;13.05;;;;;;;;;;5010294;28;20092;-77
2021/07/23 13:27:31;;;;;;;23.33;13.38;;;;;;;;;;5004345;28;20014;-80
2021/07/23 13:29:57;;;;;;;13.68;12.27;;;;;;;;;;5009882;28;20052;-75
2021/07/23 13:32:23;;;;;;;17.95;12.55;;;;;;;;;;5008432;28;20030;-81
2021/07/23 13:34:58;;;;;;;21.65;13.23;;;;;;;;;;5005504;28;20475;-77
2021/07/23 13:37:37;;;;;;;14.85;12.07;;;;;;;;;;4992062;28;20537;-75
2021/07/23 13:40:11;;;;;;;13.32;11.93;;;;;;;;;;5008587;28;20592;-78
2021/07/23 13:42:41;;;;;;;14.43;12.75;;;;;;;;;;4992500;28;20041;-75
2021/07/23 13:45:07;;;;;;;13.95;12.55;;;;;;;;;;5010898;28;20483;-78
2021/07/23 13:47:33;;;;;;;16.45;13.85;;;;;;;;;;5026297;28;20076;-73
2021/07/23 13:50:00;;;;;;;15.43;13.82;;;;;;;;;;5005524;28;20423;-76
2021/07/23 13:52:26;;;;;;;14.32;12.63;;;;;;;;;;5029111;28;20100;-78
2021/07/23 13:54:52;;;;;;;14.27;12.80;;;;;;;;;;5027005;28;20041;-77
2021/07/23 13:57:19;;;;;;;14.60;12.30;;;;;;;;;;5017479;28;20033;-80
2021/07/23 13:59:45;;;;;;;14.85;13.35;;;;;;;;;;5009804;28;20030;-78
2021/07/23 14:02:11;;;;;;;16.13;14.43;;;;;;;;;;5020332;28;20026;-81
2021/07/23 14:04:37;;;;;;;13.07;11.73;;;;;;;;;;5028746;28;20028;-76
2021/07/23 14:07:05;;;;;;;19.10;14.13;;;;;;;;;;5022475;28;20057;-76
2021/07/23 14:09:31;;;;;;;15.00;12.13;;;;;;;;;;5021015;28;20040;-77
2021/07/23 14:12:01;;;;;;;16.83;13.57;;;;;;;;;;5028569;28;20029;-81
2021/07/23 14:14:27;;;;;;;17.88;13.52;;;;;;;;;;5016745;28;20033;-81
2021/07/23 14:16:53;;;;;;;13.65;11.95;;;;;;;;;;5026733;28;20030;-79
2021/07/23 14:19:19;;;;;;;14.35;12.65;;;;;;;;;;5011515;28;20083;-72
2021/07/23 14:22:01;;;;;;;15.30;13.70;;;;;;;;;;5035572;28;20123;-78
2021/07/23 14:24:27;;;;;;;17.08;12.45;;;;;;;;;;5032642;28;20061;-80
2021/07/23 14:26:53;;;;;;;13.93;12.40;;;;;;;;;;5025409;28;20467;-80
2021/07/23 14:29:34;;;;;;;16.77;15.10;;;;;;;;;;5039878;28;20468;-81
2021/07/23 14:32:01;;;;;;;15.45;13.57;;;;;;;;;;5011889;28;20033;-79
2021/07/23 14:34:30;;;;;;;16.58;14.75;;;;;;;;;;5027106;28;20112;-79